sensor_id;sensor_type;location;lat;lon;timestamp;temperature;humidity
39777;DHT22;25453;48.162;14.510;2022-12-01T00:02:00;5.70;71.00
39777;DHT22;25453;48.162;14.510;2022-12-01T00:04:35;5.70;71.20
39777;DHT22;25453;48.162;14.510;2022-12-01T00:07:02;5.70;71.20
39777;DHT22;25453;48.162;14.510;2022-12-01T00:09:49;5.70;71.00
39777;DHT22;25453;48.162;14.510;2022-12-01T00:12:42;5.70;71.00
39777;DHT22;25453;48.162;14.510;2022-12-01T00:15:10;5.60;71.00
39777;DHT22;25453;48.162;14.510;2022-12-01T00:17:44;5.50;70.90
39777;DHT22;25453;48.162;14.510;2022-12-01T00:20:15;5.50;71.10
39777;DHT22;25453;48.162;14.510;2022-12-01T00:22:46;5.50;71.40
39777;DHT22;25453;48.162;14.510;2022-12-01T00:25:21;5.50;71.50
39777;DHT22;25453;48.162;14.510;2022-12-01T00:27:55;5.50;71.40
39777;DHT22;25453;48.162;14.510;2022-12-01T00:30:23;5.50;71.60
39777;DHT22;25453;48.162;14.510;2022-12-01T00:32:52;5.40;71.50
39777;DHT22;25453;48.162;14.510;2022-12-01T00:35:26;5.40;71.70
39777;DHT22;25453;48.162;14.510;2022-12-01T00:37:55;5.40;71.80
39777;DHT22;25453;48.162;14.510;2022-12-01T00:40:29;5.40;72.10
39777;DHT22;25453;48.162;14.510;2022-12-01T00:43:00;5.40;72.00
39777;DHT22;25453;48.162;14.510;2022-12-01T00:45:34;5.40;72.10
39777;DHT22;25453;48.162;14.510;2022-12-01T00:48:08;5.40;72.20
39777;DHT22;25453;48.162;14.510;2022-12-01T00:50:36;5.40;72.20
39777;DHT22;25453;48.162;14.510;2022-12-01T00:53:10;5.40;72.40
39777;DHT22;25453;48.162;14.510;2022-12-01T00:55:37;5.40;72.60
39777;DHT22;25453;48.162;14.510;2022-12-01T00:58:12;5.40;72.70
39777;DHT22;25453;48.162;14.510;2022-12-01T01:00:40;5.50;72.80
39777;DHT22;25453;48.162;14.510;2022-12-01T01:03:15;5.50;72.70
39777;DHT22;25453;48.162;14.510;2022-12-01T01:05:50;5.50;72.50
39777;DHT22;25453;48.162;14.510;2022-12-01T01:08:24;5.50;72.40
39777;DHT22;25453;48.162;14.510;2022-12-01T01:10:59;5.60;72.20
39777;DHT22;25453;48.162;14.510;2022-12-01T01:13:35;5.50;72.10
39777;DHT22;25453;48.162;14.510;2022-12-01T01:16:06;5.50;72.10
39777;DHT22;25453;48.162;14.510;2022-12-01T01:18:40;5.50;72.30
39777;DHT22;25453;48.162;14.510;2022-12-01T01:21:11;5.50;72.20
39777;DHT22;25453;48.162;14.510;2022-12-01T01:23:46;5.50;72.40
39777;DHT22;25453;48.162;14.510;2022-12-01T01:26:26;5.50;72.30
39777;DHT22;25453;48.162;14.510;2022-12-01T01:29:00;5.50;72.40
39777;DHT22;25453;48.162;14.510;2022-12-01T01:31:34;5.50;72.50
39777;DHT22;25453;48.162;14.510;2022-12-01T01:34:01;5.50;72.50
39777;DHT22;25453;48.162;14.510;2022-12-01T01:36:36;5.50;72.60
39777;DHT22;25453;48.162;14.510;2022-12-01T01:39:04;5.50;72.60
39777;DHT22;25453;48.162;14.510;2022-12-01T01:41:37;5.50;72.50
39777;DHT22;25453;48.162;14.510;2022-12-01T01:47:27;5.50;72.50
39777;DHT22;25453;48.162;14.510;2022-12-01T01:49:56;5.50;72.50
39777;DHT22;25453;48.162;14.510;2022-12-01T01:52:39;5.50;72.60
39777;DHT22;25453;48.162;14.510;2022-12-01T01:55:15;5.60;72.70
39777;DHT22;25453;48.162;14.510;2022-12-01T01:57:43;5.60;72.70
39777;DHT22;25453;48.162;14.510;2022-12-01T02:00:18;5.60;72.60
39777;DHT22;25453;48.162;14.510;2022-12-01T02:02:56;5.60;72.60
39777;DHT22;25453;48.162;14.510;2022-12-01T02:05:32;5.70;72.50
39777;DHT22;25453;48.162;14.510;2022-12-01T02:08:13;5.70;72.40
39777;DHT22;25453;48.162;14.510;2022-12-01T02:16:53;5.60;72.30
39777;DHT22;25453;48.162;14.510;2022-12-01T02:28:21;5.60;72.40
39777;DHT22;25453;48.162;14.510;2022-12-01T02:34:54;5.60;72.30
39777;DHT22;25453;48.162;14.510;2022-12-01T02:36:52;5.60;72.30
39777;DHT22;25453;48.162;14.510;2022-12-01T02:42:48;5.60;72.30
39777;DHT22;25453;48.162;14.510;2022-12-01T02:45:42;5.60;72.30
39777;DHT22;25453;48.162;14.510;2022-12-01T02:48:24;5.60;72.30
39777;DHT22;25453;48.162;14.510;2022-12-01T02:50:57;5.60;72.30
39777;DHT22;25453;48.162;14.510;2022-12-01T02:53:33;5.60;72.20
39777;DHT22;25453;48.162;14.510;2022-12-01T02:56:05;5.60;72.30
39777;DHT22;25453;48.162;14.510;2022-12-01T02:58:40;5.60;72.40
39777;DHT22;25453;48.162;14.510;2022-12-01T03:07:21;5.60;71.90
39777;DHT22;25453;48.162;14.510;2022-12-01T03:18:48;5.40;71.80
39777;DHT22;25453;48.162;14.510;2022-12-01T03:21:32;5.40;71.80
39777;DHT22;25453;48.162;14.510;2022-12-01T03:24:13;5.40;71.90
39777;DHT22;25453;48.162;14.510;2022-12-01T03:26:43;5.40;71.70
39777;DHT22;25453;48.162;14.510;2022-12-01T03:29:38;5.40;71.80
39777;DHT22;25453;48.162;14.510;2022-12-01T03:32:26;5.30;71.60
39777;DHT22;25453;48.162;14.510;2022-12-01T03:35:14;5.30;71.60
39777;DHT22;25453;48.162;14.510;2022-12-01T03:37:56;5.30;71.80
39777;DHT22;25453;48.162;14.510;2022-12-01T03:40:33;5.30;71.90
39777;DHT22;25453;48.162;14.510;2022-12-01T03:43:14;5.30;72.00
39777;DHT22;25453;48.162;14.510;2022-12-01T03:46:14;5.30;72.00
39777;DHT22;25453;48.162;14.510;2022-12-01T03:48:45;5.30;72.10
39777;DHT22;25453;48.162;14.510;2022-12-01T03:52:08;5.30;72.10
39777;DHT22;25453;48.162;14.510;2022-12-01T03:54:32;5.30;72.00
39777;DHT22;25453;48.162;14.510;2022-12-01T03:57:10;5.30;72.10
39777;DHT22;25453;48.162;14.510;2022-12-01T03:59:49;5.30;72.10
39777;DHT22;25453;48.162;14.510;2022-12-01T04:02:17;5.30;72.10
39777;DHT22;25453;48.162;14.510;2022-12-01T04:04:51;5.40;72.20
39777;DHT22;25453;48.162;14.510;2022-12-01T04:07:25;5.40;72.40
39777;DHT22;25453;48.162;14.510;2022-12-01T04:09:59;5.50;72.40
39777;DHT22;25453;48.162;14.510;2022-12-01T04:12:33;5.50;72.30
39777;DHT22;25453;48.162;14.510;2022-12-01T04:15:10;5.50;72.30
39777;DHT22;25453;48.162;14.510;2022-12-01T04:17:42;5.50;72.30
39777;DHT22;25453;48.162;14.510;2022-12-01T04:20:16;5.50;72.10
39777;DHT22;25453;48.162;14.510;2022-12-01T04:22:44;5.50;72.00
39777;DHT22;25453;48.162;14.510;2022-12-01T04:25:18;5.50;72.00
39777;DHT22;25453;48.162;14.510;2022-12-01T04:27:45;5.50;72.00
39777;DHT22;25453;48.162;14.510;2022-12-01T04:30:19;5.50;72.00
39777;DHT22;25453;48.162;14.510;2022-12-01T04:32:46;5.50;72.10
39777;DHT22;25453;48.162;14.510;2022-12-01T04:35:20;5.50;72.10
39777;DHT22;25453;48.162;14.510;2022-12-01T04:37:47;5.50;72.10
39777;DHT22;25453;48.162;14.510;2022-12-01T04:40:21;5.50;72.10
39777;DHT22;25453;48.162;14.510;2022-12-01T04:42:55;5.50;72.20
39777;DHT22;25453;48.162;14.510;2022-12-01T04:45:22;5.60;72.30
39777;DHT22;25453;48.162;14.510;2022-12-01T04:47:56;5.60;72.20
39777;DHT22;25453;48.162;14.510;2022-12-01T04:50:23;5.60;71.90
39777;DHT22;25453;48.162;14.510;2022-12-01T04:52:57;5.50;71.60
39777;DHT22;25453;48.162;14.510;2022-12-01T04:55:24;5.50;71.80
39777;DHT22;25453;48.162;14.510;2022-12-01T04:57:58;5.50;71.60
39777;DHT22;25453;48.162;14.510;2022-12-01T05:00:33;5.50;71.80
39777;DHT22;25453;48.162;14.510;2022-12-01T05:03:01;5.50;71.70
39777;DHT22;25453;48.162;14.510;2022-12-01T05:05:41;5.40;71.80
39777;DHT22;25453;48.162;14.510;2022-12-01T05:08:21;5.40;71.70
39777;DHT22;25453;48.162;14.510;2022-12-01T05:10:49;5.40;71.60
39777;DHT22;25453;48.162;14.510;2022-12-01T05:13:27;5.40;71.60
39777;DHT22;25453;48.162;14.510;2022-12-01T05:16:26;5.40;71.90
39777;DHT22;25453;48.162;14.510;2022-12-01T05:19:03;5.40;72.10
39777;DHT22;25453;48.162;14.510;2022-12-01T05:22:09;5.40;72.00
39777;DHT22;25453;48.162;14.510;2022-12-01T05:25:03;5.40;72.20
39777;DHT22;25453;48.162;14.510;2022-12-01T05:27:37;5.50;72.10
39777;DHT22;25453;48.162;14.510;2022-12-01T05:30:05;5.50;72.10
39777;DHT22;25453;48.162;14.510;2022-12-01T05:32:39;5.50;72.00
39777;DHT22;25453;48.162;14.510;2022-12-01T05:35:07;5.50;72.00
39777;DHT22;25453;48.162;14.510;2022-12-01T05:37:41;5.50;72.10
39777;DHT22;25453;48.162;14.510;2022-12-01T05:40:10;5.50;71.90
39777;DHT22;25453;48.162;14.510;2022-12-01T05:42:44;5.50;72.00
39777;DHT22;25453;48.162;14.510;2022-12-01T05:45:12;5.50;71.90
39777;DHT22;25453;48.162;14.510;2022-12-01T05:47:46;5.50;72.00
39777;DHT22;25453;48.162;14.510;2022-12-01T05:50:14;5.50;71.80
39777;DHT22;25453;48.162;14.510;2022-12-01T05:52:42;5.50;71.60
39777;DHT22;25453;48.162;14.510;2022-12-01T05:55:15;5.50;71.40
39777;DHT22;25453;48.162;14.510;2022-12-01T05:57:43;5.40;71.50
39777;DHT22;25453;48.162;14.510;2022-12-01T06:00:19;5.40;71.80
39777;DHT22;25453;48.162;14.510;2022-12-01T06:02:46;5.40;71.70
39777;DHT22;25453;48.162;14.510;2022-12-01T06:05:21;5.40;71.70
39777;DHT22;25453;48.162;14.510;2022-12-01T06:07:55;5.40;71.80
39777;DHT22;25453;48.162;14.510;2022-12-01T06:10:35;5.50;71.90
39777;DHT22;25453;48.162;14.510;2022-12-01T06:13:09;5.50;71.90
39777;DHT22;25453;48.162;14.510;2022-12-01T06:15:43;5.50;71.80
39777;DHT22;25453;48.162;14.510;2022-12-01T06:18:10;5.50;71.90
39777;DHT22;25453;48.162;14.510;2022-12-01T06:20:44;5.50;71.90
39777;DHT22;25453;48.162;14.510;2022-12-01T06:23:18;5.60;72.00
39777;DHT22;25453;48.162;14.510;2022-12-01T06:25:56;5.60;72.00
39777;DHT22;25453;48.162;14.510;2022-12-01T06:28:30;5.60;71.80
39777;DHT22;25453;48.162;14.510;2022-12-01T06:30:57;5.60;71.50
39777;DHT22;25453;48.162;14.510;2022-12-01T06:33:31;5.60;71.50
39777;DHT22;25453;48.162;14.510;2022-12-01T06:36:06;5.60;71.50
39777;DHT22;25453;48.162;14.510;2022-12-01T06:38:34;5.50;71.20
39777;DHT22;25453;48.162;14.510;2022-12-01T06:41:09;5.50;71.30
39777;DHT22;25453;48.162;14.510;2022-12-01T06:43:43;5.50;71.50
39777;DHT22;25453;48.162;14.510;2022-12-01T06:46:11;5.50;71.60
39777;DHT22;25453;48.162;14.510;2022-12-01T06:48:47;5.60;71.70
39777;DHT22;25453;48.162;14.510;2022-12-01T06:51:21;5.50;71.30
39777;DHT22;25453;48.162;14.510;2022-12-01T06:53:55;5.50;71.30
39777;DHT22;25453;48.162;14.510;2022-12-01T06:56:31;5.50;71.50
39777;DHT22;25453;48.162;14.510;2022-12-01T06:58:59;5.50;71.70
39777;DHT22;25453;48.162;14.510;2022-12-01T07:01:33;5.60;71.60
39777;DHT22;25453;48.162;14.510;2022-12-01T07:04:01;5.60;71.40
39777;DHT22;25453;48.162;14.510;2022-12-01T07:06:35;5.60;71.40
39777;DHT22;25453;48.162;14.510;2022-12-01T07:09:16;5.50;71.40
39777;DHT22;25453;48.162;14.510;2022-12-01T07:11:49;5.50;71.20
39777;DHT22;25453;48.162;14.510;2022-12-01T07:14:22;5.50;71.50
39777;DHT22;25453;48.162;14.510;2022-12-01T07:16:57;5.50;71.70
39777;DHT22;25453;48.162;14.510;2022-12-01T07:19:25;5.50;71.70
39777;DHT22;25453;48.162;14.510;2022-12-01T07:21:59;5.50;71.90
39777;DHT22;25453;48.162;14.510;2022-12-01T07:24:33;5.60;71.90
39777;DHT22;25453;48.162;14.510;2022-12-01T07:27:00;5.60;71.90
39777;DHT22;25453;48.162;14.510;2022-12-01T07:29:34;5.60;71.90
39777;DHT22;25453;48.162;14.510;2022-12-01T07:32:01;5.60;72.20
39777;DHT22;25453;48.162;14.510;2022-12-01T07:34:35;5.60;72.40
39777;DHT22;25453;48.162;14.510;2022-12-01T07:37:03;5.60;72.50
39777;DHT22;25453;48.162;14.510;2022-12-01T07:39:37;5.60;72.40
39777;DHT22;25453;48.162;14.510;2022-12-01T07:42:11;5.60;72.50
39777;DHT22;25453;48.162;14.510;2022-12-01T07:44:45;5.70;72.50
39777;DHT22;25453;48.162;14.510;2022-12-01T07:47:13;5.60;72.60
39777;DHT22;25453;48.162;14.510;2022-12-01T07:49:47;5.60;72.70
39777;DHT22;25453;48.162;14.510;2022-12-01T07:52:21;5.60;72.70
39777;DHT22;25453;48.162;14.510;2022-12-01T07:54:49;5.60;72.70
39777;DHT22;25453;48.162;14.510;2022-12-01T07:57:24;5.50;72.70
39777;DHT22;25453;48.162;14.510;2022-12-01T07:59:51;5.50;73.00
39777;DHT22;25453;48.162;14.510;2022-12-01T08:02:25;5.50;73.10
39777;DHT22;25453;48.162;14.510;2022-12-01T08:04:53;5.50;73.10
39777;DHT22;25453;48.162;14.510;2022-12-01T08:07:27;5.50;73.40
39777;DHT22;25453;48.162;14.510;2022-12-01T08:10:01;5.50;73.60
39777;DHT22;25453;48.162;14.510;2022-12-01T08:12:35;5.50;73.80
39777;DHT22;25453;48.162;14.510;2022-12-01T08:15:09;5.50;73.80
39777;DHT22;25453;48.162;14.510;2022-12-01T08:17:43;5.50;73.80
39777;DHT22;25453;48.162;14.510;2022-12-01T08:20:11;5.50;74.10
39777;DHT22;25453;48.162;14.510;2022-12-01T08:22:50;5.60;74.20
39777;DHT22;25453;48.162;14.510;2022-12-01T08:25:17;5.60;74.30
39777;DHT22;25453;48.162;14.510;2022-12-01T08:27:45;5.60;74.40
39777;DHT22;25453;48.162;14.510;2022-12-01T08:30:18;5.70;74.60
39777;DHT22;25453;48.162;14.510;2022-12-01T08:32:53;5.70;74.70
39777;DHT22;25453;48.162;14.510;2022-12-01T08:35:21;5.80;74.50
39777;DHT22;25453;48.162;14.510;2022-12-01T08:37:55;5.80;74.70
39777;DHT22;25453;48.162;14.510;2022-12-01T08:40:23;5.90;74.70
39777;DHT22;25453;48.162;14.510;2022-12-01T08:42:57;5.90;74.60
39777;DHT22;25453;48.162;14.510;2022-12-01T08:45:28;5.90;74.30
39777;DHT22;25453;48.162;14.510;2022-12-01T08:48:02;5.90;74.50
39777;DHT22;25453;48.162;14.510;2022-12-01T08:50:36;5.90;74.60
39777;DHT22;25453;48.162;14.510;2022-12-01T08:53:03;5.90;74.50
39777;DHT22;25453;48.162;14.510;2022-12-01T08:55:37;5.90;74.40
39777;DHT22;25453;48.162;14.510;2022-12-01T08:58:05;5.90;74.30
39777;DHT22;25453;48.162;14.510;2022-12-01T09:00:39;5.90;74.30
39777;DHT22;25453;48.162;14.510;2022-12-01T09:03:07;5.90;74.60
39777;DHT22;25453;48.162;14.510;2022-12-01T09:05:41;5.90;74.50
39777;DHT22;25453;48.162;14.510;2022-12-01T09:08:21;5.90;74.50
39777;DHT22;25453;48.162;14.510;2022-12-01T09:11:09;5.90;74.40
39777;DHT22;25453;48.162;14.510;2022-12-01T09:13:45;5.90;74.20
39777;DHT22;25453;48.162;14.510;2022-12-01T09:16:20;5.90;74.40
39777;DHT22;25453;48.162;14.510;2022-12-01T09:18:55;5.90;74.50
39777;DHT22;25453;48.162;14.510;2022-12-01T09:21:25;6.00;74.60
39777;DHT22;25453;48.162;14.510;2022-12-01T09:24:00;6.00;74.50
39777;DHT22;25453;48.162;14.510;2022-12-01T09:26:27;6.00;74.50
39777;DHT22;25453;48.162;14.510;2022-12-01T09:29:07;6.00;74.80
39777;DHT22;25453;48.162;14.510;2022-12-01T09:31:36;6.00;74.80
39777;DHT22;25453;48.162;14.510;2022-12-01T09:34:17;6.00;74.70
39777;DHT22;25453;48.162;14.510;2022-12-01T09:36:46;6.00;74.50
39777;DHT22;25453;48.162;14.510;2022-12-01T09:39:20;6.00;74.20
39777;DHT22;25453;48.162;14.510;2022-12-01T09:41:55;6.00;74.20
39777;DHT22;25453;48.162;14.510;2022-12-01T09:44:44;5.90;74.00
39777;DHT22;25453;48.162;14.510;2022-12-01T09:47:30;5.80;74.20
39777;DHT22;25453;48.162;14.510;2022-12-01T09:52:45;5.80;74.70
39777;DHT22;25453;48.162;14.510;2022-12-01T09:55:22;5.80;74.90
39777;DHT22;25453;48.162;14.510;2022-12-01T09:57:54;5.80;74.90
39777;DHT22;25453;48.162;14.510;2022-12-01T10:00:38;5.80;74.80
39777;DHT22;25453;48.162;14.510;2022-12-01T10:03:34;5.80;75.00
39777;DHT22;25453;48.162;14.510;2022-12-01T10:06:12;5.80;75.20
39777;DHT22;25453;48.162;14.510;2022-12-01T10:12:05;5.90;75.40
39777;DHT22;25453;48.162;14.510;2022-12-01T10:14:43;5.90;75.30
39777;DHT22;25453;48.162;14.510;2022-12-01T10:20:08;5.90;75.50
39777;DHT22;25453;48.162;14.510;2022-12-01T10:23:09;5.90;75.50
39777;DHT22;25453;48.162;14.510;2022-12-01T10:25:54;5.90;75.10
39777;DHT22;25453;48.162;14.510;2022-12-01T10:31:18;5.90;75.30
39777;DHT22;25453;48.162;14.510;2022-12-01T10:34:10;5.90;75.20
39777;DHT22;25453;48.162;14.510;2022-12-01T10:36:47;5.90;75.30
39777;DHT22;25453;48.162;14.510;2022-12-01T10:42:33;5.80;74.90
39777;DHT22;25453;48.162;14.510;2022-12-01T10:45:06;5.70;75.00
39777;DHT22;25453;48.162;14.510;2022-12-01T10:50:39;5.70;75.10
39777;DHT22;25453;48.162;14.510;2022-12-01T10:53:33;5.70;75.40
39777;DHT22;25453;48.162;14.510;2022-12-01T10:58:56;5.70;75.70
39777;DHT22;25453;48.162;14.510;2022-12-01T11:01:26;5.80;75.90
39777;DHT22;25453;48.162;14.510;2022-12-01T11:04:07;5.80;75.50
39777;DHT22;25453;48.162;14.510;2022-12-01T11:06:54;5.80;75.40
39777;DHT22;25453;48.162;14.510;2022-12-01T11:09:41;5.80;75.40
39777;DHT22;25453;48.162;14.510;2022-12-01T11:12:16;5.80;75.60
39777;DHT22;25453;48.162;14.510;2022-12-01T11:14:54;5.80;75.80
39777;DHT22;25453;48.162;14.510;2022-12-01T11:17:46;5.90;76.00
39777;DHT22;25453;48.162;14.510;2022-12-01T11:20:25;5.90;76.20
39777;DHT22;25453;48.162;14.510;2022-12-01T11:28:33;6.00;75.70
39777;DHT22;25453;48.162;14.510;2022-12-01T11:31:06;6.00;75.60
39777;DHT22;25453;48.162;14.510;2022-12-01T11:33:52;6.00;75.50
39777;DHT22;25453;48.162;14.510;2022-12-01T11:36:41;6.00;75.00
39777;DHT22;25453;48.162;14.510;2022-12-01T11:39:37;5.90;75.20
39777;DHT22;25453;48.162;14.510;2022-12-01T11:42:27;5.90;75.20
39777;DHT22;25453;48.162;14.510;2022-12-01T11:45:03;5.90;75.20
39777;DHT22;25453;48.162;14.510;2022-12-01T11:48:00;6.00;75.60
39777;DHT22;25453;48.162;14.510;2022-12-01T11:50:36;6.00;75.40
39777;DHT22;25453;48.162;14.510;2022-12-01T11:53:38;6.00;75.60
39777;DHT22;25453;48.162;14.510;2022-12-01T11:59:09;6.00;75.10
39777;DHT22;25453;48.162;14.510;2022-12-01T12:11:21;6.00;75.00
39777;DHT22;25453;48.162;14.510;2022-12-01T12:17:16;6.00;74.90
39777;DHT22;25453;48.162;14.510;2022-12-01T12:20:00;6.00;75.00
39777;DHT22;25453;48.162;14.510;2022-12-01T12:37:25;6.10;74.70
39777;DHT22;25453;48.162;14.510;2022-12-01T12:40:28;6.00;74.40
39777;DHT22;25453;48.162;14.510;2022-12-01T12:46:04;6.00;74.60
39777;DHT22;25453;48.162;14.510;2022-12-01T12:52:00;6.10;74.90
39777;DHT22;25453;48.162;14.510;2022-12-01T12:57:36;6.20;74.90
39777;DHT22;25453;48.162;14.510;2022-12-01T13:00:26;6.20;74.80
39777;DHT22;25453;48.162;14.510;2022-12-01T13:03:04;6.20;74.60
39777;DHT22;25453;48.162;14.510;2022-12-01T13:08:51;6.20;74.60
39777;DHT22;25453;48.162;14.510;2022-12-01T13:11:31;6.20;74.60
39777;DHT22;25453;48.162;14.510;2022-12-01T13:14:26;6.20;74.60
39777;DHT22;25453;48.162;14.510;2022-12-01T13:17:11;6.20;74.60
39777;DHT22;25453;48.162;14.510;2022-12-01T13:19:51;6.20;74.70
39777;DHT22;25453;48.162;14.510;2022-12-01T13:22:32;6.20;74.90
39777;DHT22;25453;48.162;14.510;2022-12-01T13:25:01;6.30;75.10
39777;DHT22;25453;48.162;14.510;2022-12-01T13:27:36;6.30;75.10
39777;DHT22;25453;48.162;14.510;2022-12-01T13:30:19;6.40;74.90
39777;DHT22;25453;48.162;14.510;2022-12-01T13:33:12;6.40;74.70
39777;DHT22;25453;48.162;14.510;2022-12-01T13:35:51;6.40;73.80
39777;DHT22;25453;48.162;14.510;2022-12-01T13:38:40;6.30;74.00
39777;DHT22;25453;48.162;14.510;2022-12-01T13:41:25;6.30;74.40
39777;DHT22;25453;48.162;14.510;2022-12-01T13:47:38;6.30;74.50
39777;DHT22;25453;48.162;14.510;2022-12-01T13:49:47;6.30;74.30
39777;DHT22;25453;48.162;14.510;2022-12-01T13:57:43;6.20;73.90
39777;DHT22;25453;48.162;14.510;2022-12-01T14:00:30;6.20;73.70
39777;DHT22;25453;48.162;14.510;2022-12-01T14:05:55;6.00;73.30
39777;DHT22;25453;48.162;14.510;2022-12-01T14:08:47;6.00;73.40
39777;DHT22;25453;48.162;14.510;2022-12-01T14:11:29;5.90;73.40
39777;DHT22;25453;48.162;14.510;2022-12-01T14:14:18;5.80;73.60
39777;DHT22;25453;48.162;14.510;2022-12-01T14:16:53;5.80;73.90
39777;DHT22;25453;48.162;14.510;2022-12-01T14:19:47;5.80;74.10
39777;DHT22;25453;48.162;14.510;2022-12-01T14:22:43;5.90;74.00
39777;DHT22;25453;48.162;14.510;2022-12-01T14:28:02;5.80;73.30
39777;DHT22;25453;48.162;14.510;2022-12-01T14:36:09;5.80;74.20
39777;DHT22;25453;48.162;14.510;2022-12-01T14:38:46;5.80;74.00
39777;DHT22;25453;48.162;14.510;2022-12-01T14:41:24;5.80;74.10
39777;DHT22;25453;48.162;14.510;2022-12-01T14:44:04;5.90;74.00
39777;DHT22;25453;48.162;14.510;2022-12-01T14:46:55;5.80;73.70
39777;DHT22;25453;48.162;14.510;2022-12-01T14:49:33;5.80;73.80
39777;DHT22;25453;48.162;14.510;2022-12-01T14:52:29;5.80;73.80
39777;DHT22;25453;48.162;14.510;2022-12-01T14:54:59;5.80;73.70
39777;DHT22;25453;48.162;14.510;2022-12-01T14:57:44;5.80;73.90
39777;DHT22;25453;48.162;14.510;2022-12-01T15:00:19;5.80;73.90
39777;DHT22;25453;48.162;14.510;2022-12-01T15:03:06;5.90;73.80
39777;DHT22;25453;48.162;14.510;2022-12-01T15:05:42;5.80;73.30
39777;DHT22;25453;48.162;14.510;2022-12-01T15:08:26;5.70;73.20
39777;DHT22;25453;48.162;14.510;2022-12-01T15:11:27;5.70;72.70
39777;DHT22;25453;48.162;14.510;2022-12-01T15:13:56;5.60;72.70
39777;DHT22;25453;48.162;14.510;2022-12-01T15:16:39;5.50;73.30
39777;DHT22;25453;48.162;14.510;2022-12-01T15:19:36;5.50;73.70
39777;DHT22;25453;48.162;14.510;2022-12-01T15:22:13;5.50;74.10
39777;DHT22;25453;48.162;14.510;2022-12-01T15:24:41;5.60;74.20
39777;DHT22;25453;48.162;14.510;2022-12-01T15:27:30;5.60;73.90
39777;DHT22;25453;48.162;14.510;2022-12-01T15:30:00;5.60;73.70
39777;DHT22;25453;48.162;14.510;2022-12-01T15:32:37;5.60;73.70
39777;DHT22;25453;48.162;14.510;2022-12-01T15:35:19;5.60;73.60
39777;DHT22;25453;48.162;14.510;2022-12-01T15:37:54;5.60;73.10
39777;DHT22;25453;48.162;14.510;2022-12-01T15:40:25;5.50;73.40
39777;DHT22;25453;48.162;14.510;2022-12-01T15:43:27;5.50;73.70
39777;DHT22;25453;48.162;14.510;2022-12-01T15:46:01;5.50;73.60
39777;DHT22;25453;48.162;14.510;2022-12-01T15:48:43;5.50;73.40
39777;DHT22;25453;48.162;14.510;2022-12-01T15:51:25;5.40;73.70
39777;DHT22;25453;48.162;14.510;2022-12-01T15:54:02;5.40;73.80
39777;DHT22;25453;48.162;14.510;2022-12-01T15:56:36;5.40;74.00
39777;DHT22;25453;48.162;14.510;2022-12-01T16:01:41;5.50;74.00
39777;DHT22;25453;48.162;14.510;2022-12-01T16:07:07;5.50;73.70
39777;DHT22;25453;48.162;14.510;2022-12-01T16:09:56;5.50;73.80
39777;DHT22;25453;48.162;14.510;2022-12-01T16:12:32;5.50;74.00
39777;DHT22;25453;48.162;14.510;2022-12-01T16:15:10;5.50;74.10
39777;DHT22;25453;48.162;14.510;2022-12-01T16:20:31;5.50;74.10
39777;DHT22;25453;48.162;14.510;2022-12-01T16:23:01;5.50;73.80
39777;DHT22;25453;48.162;14.510;2022-12-01T16:25:38;5.50;73.90
39777;DHT22;25453;48.162;14.510;2022-12-01T16:28:21;5.50;73.90
39777;DHT22;25453;48.162;14.510;2022-12-01T16:30:55;5.50;73.90
39777;DHT22;25453;48.162;14.510;2022-12-01T16:33:25;5.50;73.90
39777;DHT22;25453;48.162;14.510;2022-12-01T16:35:59;5.50;74.10
39777;DHT22;25453;48.162;14.510;2022-12-01T16:38:28;5.50;74.20
39777;DHT22;25453;48.162;14.510;2022-12-01T16:41:14;5.50;74.10
39777;DHT22;25453;48.162;14.510;2022-12-01T16:43:45;5.50;74.20
39777;DHT22;25453;48.162;14.510;2022-12-01T16:46:41;5.50;74.30
39777;DHT22;25453;48.162;14.510;2022-12-01T16:49:15;5.50;73.90
39777;DHT22;25453;48.162;14.510;2022-12-01T16:51:49;5.50;74.00
39777;DHT22;25453;48.162;14.510;2022-12-01T16:54:23;5.50;74.30
39777;DHT22;25453;48.162;14.510;2022-12-01T16:56:56;5.50;74.20
39777;DHT22;25453;48.162;14.510;2022-12-01T16:59:24;5.40;74.00
39777;DHT22;25453;48.162;14.510;2022-12-01T17:01:59;5.40;74.00
39777;DHT22;25453;48.162;14.510;2022-12-01T17:04:48;5.30;74.10
39777;DHT22;25453;48.162;14.510;2022-12-01T17:07:21;5.40;74.20
39777;DHT22;25453;48.162;14.510;2022-12-01T17:10:03;5.30;74.00
39777;DHT22;25453;48.162;14.510;2022-12-01T17:12:37;5.30;74.10
39777;DHT22;25453;48.162;14.510;2022-12-01T17:15:11;5.20;74.10
39777;DHT22;25453;48.162;14.510;2022-12-01T17:17:39;5.20;74.40
39777;DHT22;25453;48.162;14.510;2022-12-01T17:20:13;5.20;74.70
39777;DHT22;25453;48.162;14.510;2022-12-01T17:22:47;5.20;75.00
39777;DHT22;25453;48.162;14.510;2022-12-01T17:25:14;5.30;75.00
39777;DHT22;25453;48.162;14.510;2022-12-01T17:27:48;5.30;74.80
39777;DHT22;25453;48.162;14.510;2022-12-01T17:30:16;5.30;75.00
39777;DHT22;25453;48.162;14.510;2022-12-01T17:32:50;5.30;75.00
39777;DHT22;25453;48.162;14.510;2022-12-01T17:35:24;5.30;74.50
39777;DHT22;25453;48.162;14.510;2022-12-01T17:37:51;5.30;74.60
39777;DHT22;25453;48.162;14.510;2022-12-01T17:40:25;5.30;74.90
39777;DHT22;25453;48.162;14.510;2022-12-01T17:42:54;5.40;75.00
39777;DHT22;25453;48.162;14.510;2022-12-01T17:45:28;5.30;75.00
39777;DHT22;25453;48.162;14.510;2022-12-01T17:47:55;5.40;75.10
39777;DHT22;25453;48.162;14.510;2022-12-01T17:50:29;5.40;75.10
39777;DHT22;25453;48.162;14.510;2022-12-01T17:52:57;5.40;75.20
39777;DHT22;25453;48.162;14.510;2022-12-01T17:55:30;5.50;75.20
39777;DHT22;25453;48.162;14.510;2022-12-01T17:57:58;5.50;75.20
39777;DHT22;25453;48.162;14.510;2022-12-01T18:00:31;5.50;75.20
39777;DHT22;25453;48.162;14.510;2022-12-01T18:03:06;5.50;75.30
39777;DHT22;25453;48.162;14.510;2022-12-01T18:05:40;5.50;75.20
39777;DHT22;25453;48.162;14.510;2022-12-01T18:08:08;5.60;75.00
39777;DHT22;25453;48.162;14.510;2022-12-01T18:11:00;5.50;74.90
39777;DHT22;25453;48.162;14.510;2022-12-01T18:13:28;5.50;74.80
39777;DHT22;25453;48.162;14.510;2022-12-01T18:16:11;5.50;74.80
39777;DHT22;25453;48.162;14.510;2022-12-01T18:18:46;5.50;74.90
39777;DHT22;25453;48.162;14.510;2022-12-01T18:21:16;5.50;74.70
39777;DHT22;25453;48.162;14.510;2022-12-01T18:23:52;5.50;74.80
39777;DHT22;25453;48.162;14.510;2022-12-01T18:26:21;5.50;74.80
39777;DHT22;25453;48.162;14.510;2022-12-01T18:29:05;5.50;74.50
39777;DHT22;25453;48.162;14.510;2022-12-01T18:31:40;5.50;74.60
39777;DHT22;25453;48.162;14.510;2022-12-01T18:34:09;5.50;74.90
39777;DHT22;25453;48.162;14.510;2022-12-01T18:36:39;5.50;74.90
39777;DHT22;25453;48.162;14.510;2022-12-01T18:39:12;5.50;74.90
39777;DHT22;25453;48.162;14.510;2022-12-01T18:41:41;5.50;75.00
39777;DHT22;25453;48.162;14.510;2022-12-01T18:44:16;5.50;74.60